»·PEaware :: SWA4295 KSAN-KLAS

SWA4295 :: KSAN-KLAS

FLIGHT INFORMATION

Flight Status: Arrived
Operator:
Southwest Airlines
More flights by this operator :: More flights under this callsign
Pilot: Cody B. (17747)
Aircraft: BOEING 737-800
(B738)
More flights by this aircraft type
Origin: KSAN San Diego Intl-Lindbergh
United States
Destination: KLAS McCarran Intl
United States
More flights between these airports :: More routes between these airports
Route: +PADRZ2 CHKNN SEBBY YELAH MISEN KEPEC6
File this flight plan on PilotEdge
Remarks:
Altitude:
(Current/Filed)
29,000ft
Speed:
(Current/Filed)
455kts
Departed: 23-Jun-18 06:12 PM
Arrived: 23-Jun-18 07:09 PM
Distance/Time
Traveled:
225nm/0:56
Distance/Time
To Go:
Arrived

Flight Plot

Page will automatically refresh every two minutes.

Flight plan parsing failed; only flown route is shown


Map Options




Map Legend


Flown Route
Filed Route
Departure Airport
Arrival Airport
Navaid (VOR, NDB)
Fix

Horizontal Profiles

Position Reports

Time Latitude Longitude Heading Altitude Ground
Speed
23-Jun-18 17:35 32.731854 -117.195856 247 20ft 0kts
23-Jun-18 17:36 32.731854 -117.195856 247 20ft 0kts
23-Jun-18 17:37 32.731854 -117.195856 247 20ft 0kts
23-Jun-18 17:38 32.731854 -117.195856 247 20ft 0kts
23-Jun-18 17:39 32.731854 -117.195856 247 20ft 0kts
23-Jun-18 17:40 32.731854 -117.195856 247 20ft 0kts
23-Jun-18 17:41 32.731854 -117.195856 247 20ft 0kts
23-Jun-18 17:42 32.731854 -117.195856 247 20ft 0kts
23-Jun-18 17:43 32.731854 -117.195856 247 20ft 0kts
23-Jun-18 17:44 32.731854 -117.195856 247 20ft 0kts
23-Jun-18 17:45 32.731854 -117.195856 247 20ft 0kts
23-Jun-18 17:46 32.731854 -117.195856 247 20ft 0kts
23-Jun-18 17:47 32.731854 -117.195856 247 20ft 0kts
23-Jun-18 17:48 32.731854 -117.195856 247 20ft 0kts
23-Jun-18 17:49 32.731854 -117.195856 247 20ft 0kts
23-Jun-18 17:50 32.731854 -117.195856 247 20ft 0kts
23-Jun-18 17:51 32.731854 -117.195856 247 20ft 0kts
23-Jun-18 17:52 32.731854 -117.195856 247 20ft 0kts
23-Jun-18 17:53 32.731854 -117.195856 247 20ft 0kts
23-Jun-18 17:54 32.731854 -117.195856 247 20ft 0kts
23-Jun-18 17:55 32.732014 -117.195403 247 20ft 2kts
23-Jun-18 17:56 32.731779 -117.195014 27 21ft 1kts
23-Jun-18 17:57 32.731739 -117.195032 15 21ft 0kts
23-Jun-18 17:58 32.731806 -117.195009 15 21ft 1kts
23-Jun-18 17:59 32.732465 -117.194690 27 21ft 2kts
23-Jun-18 18:00 32.732974 -117.194365 28 21ft 0kts
23-Jun-18 18:01 32.732974 -117.194365 28 21ft 0kts
23-Jun-18 18:02 32.732974 -117.194365 28 21ft 0kts
23-Jun-18 18:03 32.733236 -117.194155 43 21ft 3kts
23-Jun-18 18:04 32.733252 -117.192670 105 21ft 7kts
23-Jun-18 18:05 32.732409 -117.189195 106 19ft 14kts
23-Jun-18 18:06 32.731075 -117.183680 106 17ft 18kts
23-Jun-18 18:07 32.729741 -117.178161 106 21ft 12kts
23-Jun-18 18:08 32.729526 -117.176731 74 23ft 0kts
23-Jun-18 18:09 32.729526 -117.176731 74 23ft 0kts
23-Jun-18 18:10 32.729603 -117.176428 71 23ft 3kts
23-Jun-18 18:11 32.730424 -117.176778 285 24ft 12kts
23-Jun-18 18:12 32.738148 -117.208125 281 281ft 197kts
23-Jun-18 18:13 32.765710 -117.262187 306 3364ft 218kts
23-Jun-18 18:14 32.802998 -117.324772 303 5623ft 267kts
23-Jun-18 18:15 32.849202 -117.396779 306 8944ft 282kts
23-Jun-18 18:16 32.899341 -117.474368 306 11454ft 318kts
23-Jun-18 18:17 32.954002 -117.559115 306 14362ft 331kts
23-Jun-18 18:18 33.010439 -117.647217 306 15011ft 343kts
23-Jun-18 18:19 33.068376 -117.736568 313 17765ft 349kts
23-Jun-18 18:20 33.141225 -117.810908 319 19948ft 362kts
23-Jun-18 18:21 33.219411 -117.888735 320 22009ft 373kts
23-Jun-18 18:22 33.300349 -117.967270 320 24010ft 380kts
23-Jun-18 18:23 33.382865 -118.047715 320 25716ft 389kts
23-Jun-18 18:24 33.467342 -118.130376 320 27280ft 398kts
23-Jun-18 18:25 33.553179 -118.214647 320 28708ft 406kts
23-Jun-18 18:26 33.654172 -118.281639 335 28935ft 438kts
23-Jun-18 18:27 33.771625 -118.281102 31 28954ft 465kts
23-Jun-18 18:28 33.856911 -118.167294 52 28928ft 468kts
23-Jun-18 18:29 33.932397 -118.041046 52 28926ft 468kts
23-Jun-18 18:30 34.007655 -117.914612 52 28917ft 468kts
23-Jun-18 18:31 34.082346 -117.788910 52 28944ft 468kts
23-Jun-18 18:32 34.162214 -117.668523 48 28927ft 467kts
23-Jun-18 18:33 34.244852 -117.547738 48 28927ft 467kts
23-Jun-18 18:34 34.327458 -117.426230 47 28919ft 470kts
23-Jun-18 18:35 34.409407 -117.304964 48 28901ft 469kts
23-Jun-18 18:36 34.491988 -117.182490 48 28898ft 470kts
23-Jun-18 18:37 34.574648 -117.059901 48 28899ft 469kts
23-Jun-18 18:38 34.657145 -116.937711 48 28779ft 469kts
23-Jun-18 18:39 34.740005 -116.815121 48 28780ft 470kts
23-Jun-18 18:40 34.822946 -116.692483 47 28779ft 470kts
23-Jun-18 18:41 34.916248 -116.585051 35 28739ft 452kts
23-Jun-18 18:42 35.010361 -116.493484 35 26197ft 423kts
23-Jun-18 18:43 35.100356 -116.405990 36 23904ft 410kts
23-Jun-18 18:44 35.179236 -116.309550 43 23817ft 410kts
23-Jun-18 18:45 35.259359 -116.208303 43 21130ft 409kts
23-Jun-18 18:46 35.334370 -116.113581 43 19399ft 384kts
23-Jun-18 18:47 35.407881 -116.020744 43 17971ft 377kts
23-Jun-18 18:48 35.480030 -115.929339 43 16878ft 377kts
23-Jun-18 18:49 35.551252 -115.838871 43 15476ft 365kts
23-Jun-18 18:50 35.620574 -115.750539 43 14098ft 345kts
23-Jun-18 18:51 35.683426 -115.670450 44 13040ft 311kts
23-Jun-18 18:52 35.744734 -115.593601 33 13036ft 315kts
23-Jun-18 18:53 35.828811 -115.573005 0 13045ft 313kts
23-Jun-18 18:54 35.915726 -115.567831 0 13046ft 314kts
23-Jun-18 18:55 35.984539 -115.508532 61 13005ft 322kts
23-Jun-18 18:56 36.018052 -115.410841 67 11815ft 313kts
23-Jun-18 18:57 36.025344 -115.309959 96 10238ft 288kts
23-Jun-18 18:58 36.018608 -115.214816 98 9198ft 278kts
23-Jun-18 18:59 36.012544 -115.123106 97 8389ft 258kts
23-Jun-18 19:00 36.007025 -115.036287 97 8049ft 255kts
23-Jun-18 19:01 36.002141 -114.948999 94 8036ft 257kts
23-Jun-18 19:02 36.002179 -114.858338 65 6677ft 271kts
23-Jun-18 19:03 36.056912 -114.860005 294 5540ft 238kts
23-Jun-18 19:04 36.075761 -114.932087 264 4496ft 205kts
23-Jun-18 19:05 36.074375 -114.996798 262 4125ft 181kts
23-Jun-18 19:06 36.073943 -115.053050 261 3154ft 155kts
23-Jun-18 19:07 36.073685 -115.105716 266 2387ft 153kts
23-Jun-18 19:08 36.073629 -115.144912 270 2100ft 45kts
23-Jun-18 19:09 36.074163 -115.149308 293 2116ft 10kts
23-Jun-18 19:10 36.076137 -115.151859 334 2122ft 13kts
23-Jun-18 19:11 36.078378 -115.151214 29 2115ft 11kts
23-Jun-18 19:12 36.078773 -115.147391 11 2101ft 7kts
23-Jun-18 19:13 36.079774 -115.147446 62 2098ft 5kts
23-Jun-18 19:14 36.079926 -115.147118 58 2096ft 0kts
23-Jun-18 19:15 36.079926 -115.147118 58 2096ft 0kts

Navigation Log

Ident Type
Flight plan parsing failed, navigation log unavailable